Time;durP1;ratioP1;P1;durP2;ratioP2;P2;SDS_P1;SDS_P2;PMS_P1;PMS_P2;Temp;Humidity;BMP_temperature;BMP_pressure;BME280_temperature;BME280_humidity;BME280_pressure;Samples;Min_cycle;Max_cycle;Signal;HPM_P1;HPM_P2
2023/09/22 00:01:17;;;;;;;7.45;1.10;;;;;;;10.81;100.00;98791.38;5055755;28;20096;-84
2023/09/22 00:03:42;;;;;;;5.85;0.95;;;;;;;10.79;100.00;98785.44;5060206;28;20043;-84
2023/09/22 00:06:09;;;;;;;7.80;1.05;;;;;;;10.76;100.00;98783.19;5084580;28;20043;-85
2023/09/22 00:08:34;;;;;;;12.82;1.13;;;;;;;10.71;100.00;98778.47;5059242;28;20040;-84
2023/09/22 00:11:04;;;;;;;8.40;1.00;;;;;;;10.71;100.00;98782.91;5060492;28;20043;-82
2023/09/22 00:13:31;;;;;;;8.45;1.38;;;;;;;10.69;100.00;98780.47;5066896;28;20047;-84
2023/09/22 00:15:57;;;;;;;7.18;1.25;;;;;;;10.67;100.00;98778.00;5079990;28;20031;-83
2023/09/22 00:18:23;;;;;;;6.95;1.10;;;;;;;10.69;100.00;98793.66;5058433;28;20081;-85
2023/09/22 00:20:48;;;;;;;4.53;1.38;;;;;;;10.64;100.00;98790.75;5074343;28;20039;-80
2023/09/22 00:23:15;;;;;;;7.70;1.23;;;;;;;10.62;100.00;98784.88;5084898;28;20054;-81
2023/09/22 00:25:41;;;;;;;6.53;1.17;;;;;;;10.60;100.00;98792.97;5036206;28;20055;-77
2023/09/22 00:28:07;;;;;;;8.32;1.17;;;;;;;10.62;100.00;98792.78;5086194;28;20552;-80
2023/09/22 00:30:33;;;;;;;10.32;1.13;;;;;;;10.63;100.00;98792.59;5081270;27;20091;-83
2023/09/22 00:32:59;;;;;;;6.68;1.30;;;;;;;10.63;100.00;98794.41;5072011;28;20036;-81
2023/09/22 00:35:25;;;;;;;12.30;1.60;;;;;;;10.59;100.00;98796.59;5052667;28;20757;-82
2023/09/22 00:37:51;;;;;;;10.10;1.77;;;;;;;10.57;100.00;98795.16;5074807;28;20495;-82
2023/09/22 00:40:17;;;;;;;10.98;1.50;;;;;;;10.56;100.00;98802.25;5075138;28;20027;-83
2023/09/22 00:42:43;;;;;;;7.70;1.52;;;;;;;10.53;100.00;98803.47;5086444;28;20085;-83
2023/09/22 00:45:09;;;;;;;10.73;1.35;;;;;;;10.52;100.00;98796.53;5072081;28;20043;-84
2023/09/22 00:47:36;;;;;;;22.67;1.77;;;;;;;10.52;100.00;98793.06;5057334;28;20063;-83
2023/09/22 00:50:02;;;;;;;11.07;1.25;;;;;;;10.51;100.00;98800.19;5073437;28;20528;-82
2023/09/22 00:52:29;;;;;;;13.75;2.17;;;;;;;10.49;100.00;98796.09;5062978;28;20028;-81
2023/09/22 00:54:57;;;;;;;6.80;1.15;;;;;;;10.50;100.00;98801.19;5075252;28;20032;-83
2023/09/22 00:57:23;;;;;;;11.98;1.70;;;;;;;10.46;100.00;98807.00;5079017;28;20035;-83
2023/09/22 00:59:50;;;;;;;10.93;1.80;;;;;;;10.47;100.00;98801.56;5079057;28;20036;-84
2023/09/22 01:02:16;;;;;;;6.30;1.27;;;;;;;10.47;100.00;98803.38;5055455;28;20395;-83
2023/09/22 01:04:41;;;;;;;8.27;1.50;;;;;;;10.43;100.00;98803.72;5083096;28;20069;-79
2023/09/22 01:07:08;;;;;;;8.15;1.38;;;;;;;10.50;100.00;98814.41;5059657;28;20031;-79
2023/09/22 01:09:33;;;;;;;11.15;1.80;;;;;;;10.48;100.00;98812.94;5085013;28;20403;-79
2023/09/22 01:11:59;;;;;;;12.82;2.03;;;;;;;10.53;100.00;98829.03;5075103;28;20027;-79
2023/09/22 01:14:26;;;;;;;10.23;1.85;;;;;;;10.51;100.00;98820.50;5093365;28;20024;-78
2023/09/22 01:16:52;;;;;;;9.70;1.73;;;;;;;10.55;100.00;98824.41;5106730;28;20134;-78
2023/09/22 01:19:19;;;;;;;7.18;1.23;;;;;;;10.59;100.00;98825.66;5081636;28;20035;-78
2023/09/22 01:21:49;;;;;;;10.95;2.55;;;;;;;10.58;100.00;98831.97;5091365;28;20061;-79
2023/09/22 01:24:15;;;;;;;7.78;1.50;;;;;;;10.54;100.00;98828.06;5089616;28;20074;-79
2023/09/22 01:26:40;;;;;;;6.03;1.35;;;;;;;10.54;100.00;98828.88;5081067;28;20043;-78
2023/09/22 01:29:07;;;;;;;9.93;2.70;;;;;;;10.59;100.00;98835.44;5087453;28;20042;-79
2023/09/22 01:31:33;;;;;;;7.93;1.80;;;;;;;10.54;100.00;98841.28;5074323;28;20039;-79
2023/09/22 01:34:03;;;;;;;6.63;2.30;;;;;;;10.54;100.00;98841.28;5064841;28;20035;-79
2023/09/22 01:36:29;;;;;;;8.65;2.33;;;;;;;10.53;100.00;98840.44;5056033;28;20047;-79
2023/09/22 01:38:57;;;;;;;10.27;2.00;;;;;;;10.57;100.00;98840.06;5075366;28;20039;-79
2023/09/22 01:41:23;;;;;;;11.88;2.40;;;;;;;10.57;100.00;98848.84;5075638;28;20039;-79
2023/09/22 01:43:49;;;;;;;6.15;1.33;;;;;;;10.56;100.00;98849.00;5108989;28;20035;-79
2023/09/22 01:46:15;;;;;;;10.23;1.63;;;;;;;10.57;100.00;98848.84;5098392;28;20084;-78
2023/09/22 01:48:40;;;;;;;9.40;1.40;;;;;;;10.58;100.00;98846.97;5087642;28;20035;-78
2023/09/22 01:51:06;;;;;;;8.75;1.40;;;;;;;10.58;100.00;98849.63;5082493;27;20036;-78
2023/09/22 01:53:32;;;;;;;9.98;1.73;;;;;;;10.60;100.00;98860.84;5119450;27;20047;-79
2023/09/22 01:55:58;;;;;;;9.10;1.50;;;;;;;10.56;100.00;98865.66;5091237;28;20028;-78
2023/09/22 01:58:24;;;;;;;13.10;1.75;;;;;;;10.55;100.00;98861.41;5094857;27;20062;-79
2023/09/22 02:00:50;;;;;;;11.20;1.73;;;;;;;10.51;100.00;98868.84;5062174;28;20143;-79
2023/09/22 02:03:16;;;;;;;8.02;1.60;;;;;;;10.45;100.00;98872.19;5083568;28;20051;-79
2023/09/22 02:05:42;;;;;;;10.82;1.75;;;;;;;10.44;100.00;98870.56;5102671;28;20042;-79
2023/09/22 02:08:08;;;;;;;25.48;3.20;;;;;;;10.42;100.00;98873.41;5104566;27;20032;-79
2023/09/22 02:10:34;;;;;;;7.15;1.38;;;;;;;10.40;100.00;98874.59;5090955;28;20112;-79
2023/09/22 02:13:00;;;;;;;15.13;1.40;;;;;;;10.37;100.00;98880.22;5112959;27;20038;-79
2023/09/22 02:15:26;;;;;;;8.35;1.42;;;;;;;10.30;100.00;98875.66;5093425;28;20032;-79
2023/09/22 02:17:52;;;;;;;8.20;1.73;;;;;;;10.24;100.00;98872.94;5087868;28;20035;-79
2023/09/22 02:20:18;;;;;;;7.05;1.92;;;;;;;10.20;100.00;98875.13;5088550;28;20059;-79
2023/09/22 02:22:46;;;;;;;10.85;1.67;;;;;;;10.16;100.00;98879.13;5073335;27;20118;-79
2023/09/22 02:25:15;;;;;;;16.02;1.98;;;;;;;10.15;100.00;98880.94;5072965;28;20127;-79
2023/09/22 02:27:42;;;;;;;13.73;2.08;;;;;;;10.11;100.00;98879.66;5078163;28;20161;-81
2023/09/22 02:30:10;;;;;;;5.47;1.50;;;;;;;10.10;100.00;98880.66;5088029;28;20027;-79
2023/09/22 02:32:39;;;;;;;14.60;1.75;;;;;;;10.08;100.00;98881.84;5108345;27;20043;-78
2023/09/22 02:35:05;;;;;;;11.40;1.50;;;;;;;10.02;100.00;98892.13;5105121;28;20032;-79
2023/09/22 02:37:31;;;;;;;7.53;1.55;;;;;;;10.01;100.00;98892.28;5099282;28;20031;-79
2023/09/22 02:39:56;;;;;;;8.57;1.40;;;;;;;9.98;100.00;98896.13;5119289;27;20101;-78
2023/09/22 02:42:23;;;;;;;10.55;1.70;;;;;;;10.00;100.00;98901.22;5092335;27;20115;-80
2023/09/22 02:44:49;;;;;;;9.90;1.30;;;;;;;9.96;100.00;98898.09;5074871;28;20149;-79
2023/09/22 02:47:15;;;;;;;10.93;1.70;;;;;;;9.95;100.00;98904.41;5073514;28;20036;-79
2023/09/22 02:49:42;;;;;;;8.63;1.10;;;;;;;9.94;100.00;98902.72;5109695;27;20035;-80
2023/09/22 02:52:07;;;;;;;11.18;1.50;;;;;;;9.93;100.00;98909.84;5088714;28;20062;-79
2023/09/22 02:54:33;;;;;;;8.80;1.75;;;;;;;9.89;100.00;98903.28;5072565;27;20527;-80
2023/09/22 02:56:59;;;;;;;10.13;1.95;;;;;;;9.84;100.00;98896.91;5057144;28;20043;-79
2023/09/22 02:59:25;;;;;;;12.15;1.45;;;;;;;9.83;100.00;98908.44;5070104;28;20039;-80
2023/09/22 03:01:52;;;;;;;8.80;1.55;;;;;;;9.78;100.00;98907.16;5087049;28;20042;-79
2023/09/22 03:04:17;;;;;;;7.35;1.30;;;;;;;9.76;100.00;98924.19;5067252;27;20059;-80
2023/09/22 03:06:43;;;;;;;11.85;1.42;;;;;;;9.67;100.00;98911.03;5087596;28;20376;-80
2023/09/22 03:09:10;;;;;;;15.55;1.80;;;;;;;9.67;100.00;98923.41;5074342;28;20028;-83
2023/09/22 03:11:36;;;;;;;11.88;2.17;;;;;;;9.66;100.00;98919.13;5087940;28;20032;-80
2023/09/22 03:14:05;;;;;;;8.32;1.50;;;;;;;9.65;100.00;98928.84;5074537;28;20050;-80
2023/09/22 03:16:31;;;;;;;6.90;1.40;;;;;;;9.62;100.00;98923.94;5092134;27;20039;-78
2023/09/22 03:18:57;;;;;;;11.90;1.55;;;;;;;9.62;100.00;98928.41;5070961;28;20035;-79
2023/09/22 03:21:24;;;;;;;8.43;1.58;;;;;;;9.62;100.00;98936.31;5092105;28;20035;-79
2023/09/22 03:23:50;;;;;;;9.40;1.73;;;;;;;9.58;100.00;98927.94;5091575;28;20050;-79
2023/09/22 03:26:18;;;;;;;9.88;1.92;;;;;;;9.54;100.00;98927.44;5078211;28;20076;-79
2023/09/22 03:28:44;;;;;;;9.38;1.60;;;;;;;9.53;100.00;98935.53;5078650;27;20482;-79
2023/09/22 03:31:10;;;;;;;10.73;1.40;;;;;;;9.51;100.00;98934.88;5083616;28;20024;-80
2023/09/22 03:33:40;;;;;;;11.88;1.90;;;;;;;9.50;100.00;98939.34;5109687;27;20032;-80
2023/09/22 03:36:13;;;;;;;6.65;1.17;;;;;;;9.48;100.00;98943.97;5076620;27;20038;-81
2023/09/22 03:38:42;;;;;;;8.27;1.83;;;;;;;9.48;100.00;98943.97;5073362;27;20031;-79
2023/09/22 03:41:08;;;;;;;7.40;1.50;;;;;;;9.46;100.00;98947.78;5093132;28;20102;-81
2023/09/22 03:43:34;;;;;;;16.75;2.05;;;;;;;9.44;100.00;98947.97;5074205;28;20426;-79
2023/09/22 03:46:01;;;;;;;12.02;2.20;;;;;;;9.43;100.00;98949.78;5081709;28;20043;-79
2023/09/22 03:48:26;;;;;;;10.77;1.77;;;;;;;9.39;100.00;98956.41;5060184;27;20086;-79
2023/09/22 03:50:53;;;;;;;12.05;1.85;;;;;;;9.37;100.00;98947.00;5085417;27;20036;-80
2023/09/22 03:53:19;;;;;;;7.85;1.35;;;;;;;9.37;100.00;98957.53;5094251;27;20031;-79
2023/09/22 03:55:45;;;;;;;10.15;1.95;;;;;;;9.37;100.00;98954.91;5051759;28;20032;-79
2023/09/22 03:58:11;;;;;;;11.70;2.00;;;;;;;9.35;100.00;98954.28;5073518;28;20032;-80
2023/09/22 04:00:37;;;;;;;13.93;1.63;;;;;;;9.34;100.00;98950.81;5090493;28;20487;-80
2023/09/22 04:03:05;;;;;;;20.23;2.05;;;;;;;9.32;100.00;98958.06;5083920;28;20480;-80
2023/09/22 04:05:30;;;;;;;8.27;1.15;;;;;;;9.30;100.00;98957.44;5082729;27;20440;-79
2023/09/22 04:07:57;;;;;;;8.27;1.40;;;;;;;9.28;100.00;98954.16;5072890;28;20050;-80
2023/09/22 04:10:23;;;;;;;12.35;1.60;;;;;;;9.28;100.00;98962.06;5070788;28;20032;-78
2023/09/22 04:12:50;;;;;;;8.60;1.35;;;;;;;9.26;100.00;98967.50;5069359;27;20026;-80
2023/09/22 04:15:16;;;;;;;12.07;2.13;;;;;;;9.27;100.00;98965.69;5080020;28;20509;-80
2023/09/22 04:17:42;;;;;;;8.05;1.65;;;;;;;9.25;100.00;98972.94;5054905;28;20040;-79
2023/09/22 04:20:11;;;;;;;11.38;1.80;;;;;;;9.24;100.00;98979.19;5103592;28;20092;-79
2023/09/22 04:22:37;;;;;;;13.38;3.08;;;;;;;9.20;100.00;98973.47;5077735;28;20032;-80
2023/09/22 04:25:18;;;;;;;11.70;1.77;;;;;;;9.23;100.00;98972.28;5068267;28;20068;-79
2023/09/22 04:27:53;;;;;;;8.57;2.00;;;;;;;9.16;100.00;98985.34;5075493;28;20156;-79
2023/09/22 04:30:20;;;;;;;8.10;1.52;;;;;;;9.17;100.00;98982.53;5087802;28;20100;-79
2023/09/22 04:32:47;;;;;;;10.50;1.77;;;;;;;9.16;100.00;98991.44;5091862;28;20034;-79
2023/09/22 04:35:13;;;;;;;11.98;1.67;;;;;;;9.16;100.00;98995.88;5069967;28;20036;-79
2023/09/22 04:37:40;;;;;;;11.35;2.03;;;;;;;9.15;100.00;98996.88;5068627;28;20051;-79
2023/09/22 04:40:32;;;;;;;9.27;1.20;;;;;;;9.14;100.00;98997.88;5085228;28;20044;-79
2023/09/22 04:42:53;;;;;;;10.60;1.80;;;;;;;9.14;100.00;99000.50;5082781;27;20058;-79
2023/09/22 04:45:19;;;;;;;12.85;1.58;;;;;;;9.14;100.00;99009.22;5079966;28;20088;-80
2023/09/22 04:47:51;;;;;;;10.57;1.63;;;;;;;9.09;100.00;99008.09;5107162;28;20043;-80
2023/09/22 04:50:17;;;;;;;10.20;1.90;;;;;;;9.09;100.00;99014.22;5095043;27;20023;-79
2023/09/22 04:52:46;;;;;;;11.93;1.92;;;;;;;9.14;100.00;99027.69;5105648;28;20131;-80
2023/09/22 04:55:12;;;;;;;10.43;1.25;;;;;;;9.10;100.00;99021.13;5093005;28;20100;-79
2023/09/22 04:57:38;;;;;;;13.93;1.42;;;;;;;9.08;100.00;99030.19;5098081;28;20495;-80
2023/09/22 05:00:12;;;;;;;13.65;2.22;;;;;;;9.12;100.00;99032.31;5092416;28;20043;-79
2023/09/22 05:02:38;;;;;;;10.30;1.48;;;;;;;9.14;100.00;99029.50;5054043;28;20073;-78
2023/09/22 05:05:04;;;;;;;9.65;1.38;;;;;;;9.17;100.00;99037.06;5076456;28;20024;-79
2023/09/22 05:07:30;;;;;;;7.07;1.55;;;;;;;9.15;100.00;99037.25;5073886;28;20031;-79
2023/09/22 05:09:56;;;;;;;11.02;1.58;;;;;;;9.18;100.00;99043.97;5109461;28;20039;-78
2023/09/22 05:12:21;;;;;;;12.02;1.58;;;;;;;9.14;100.00;99038.22;5105074;28;20046;-78
2023/09/22 05:14:47;;;;;;;15.48;1.63;;;;;;;9.15;100.00;99044.31;5095666;28;20028;-78
2023/09/22 05:17:13;;;;;;;18.10;1.77;;;;;;;9.12;100.00;99042.03;5109970;28;20031;-79
2023/09/22 05:19:39;;;;;;;9.70;1.85;;;;;;;9.10;100.00;99036.94;5111842;28;20035;-79
2023/09/22 05:22:05;;;;;;;10.10;1.45;;;;;;;9.08;100.00;99051.28;5088214;28;21364;-79
2023/09/22 05:24:31;;;;;;;10.82;1.83;;;;;;;9.04;100.00;99051.63;5108598;28;20070;-79
2023/09/22 05:26:57;;;;;;;6.57;1.40;;;;;;;9.02;100.00;99055.41;5089647;28;20043;-79
2023/09/22 05:29:22;;;;;;;11.50;1.15;;;;;;;9.04;100.00;99063.97;5094939;28;20036;-78
2023/09/22 05:31:48;;;;;;;13.43;1.95;;;;;;;9.05;100.00;99063.78;5106496;27;20063;-79
2023/09/22 05:34:14;;;;;;;7.80;1.58;;;;;;;9.02;100.00;99065.94;5107878;28;20036;-79
2023/09/22 05:36:42;;;;;;;13.05;1.60;;;;;;;9.03;100.00;99075.50;5098804;28;20047;-79
2023/09/22 05:39:10;;;;;;;7.95;1.33;;;;;;;9.04;100.00;99075.34;5091044;28;20099;-79
2023/09/22 05:41:36;;;;;;;13.88;1.63;;;;;;;9.10;100.00;99084.38;5091357;28;20568;-79
2023/09/22 05:44:02;;;;;;;13.38;2.55;;;;;;;9.10;100.00;99089.66;5110219;27;20035;-79
2023/09/22 05:46:31;;;;;;;10.27;2.42;;;;;;;9.15;100.00;99087.34;5097453;27;20109;-79
2023/09/22 05:48:57;;;;;;;8.18;1.35;;;;;;;9.21;100.00;99090.28;5068157;28;20078;-78
2023/09/22 05:51:23;;;;;;;9.32;1.30;;;;;;;9.22;100.00;99078.75;5090827;28;20464;-79
2023/09/22 05:53:52;;;;;;;11.13;1.67;;;;;;;9.23;100.00;99089.13;5090416;27;20085;-79
2023/09/22 05:56:17;;;;;;;16.95;2.05;;;;;;;9.24;100.00;99092.56;5088202;28;20055;-79
2023/09/22 05:58:44;;;;;;;6.55;1.42;;;;;;;9.23;100.00;99102.31;5098912;28;20028;-78
2023/09/22 06:01:12;;;;;;;7.25;1.58;;;;;;;9.21;100.00;99100.81;5109469;27;20476;-78
2023/09/22 06:03:39;;;;;;;12.45;1.63;;;;;;;9.18;100.00;99107.25;5084996;28;20412;-79
2023/09/22 06:06:09;;;;;;;11.52;1.90;;;;;;;9.17;100.00;99114.34;5073905;28;20031;-78
2023/09/22 06:08:36;;;;;;;5.25;1.23;;;;;;;9.08;100.00;99107.44;5091541;28;20032;-80
2023/09/22 06:11:06;;;;;;;5.93;1.33;;;;;;;9.05;100.00;99127.06;5087783;28;20050;-78
2023/09/22 06:13:33;;;;;;;11.90;1.80;;;;;;;9.01;100.00;99131.03;5056331;28;20136;-81
2023/09/22 06:15:59;;;;;;;11.80;1.65;;;;;;;8.98;100.00;99133.16;5100720;27;20068;-80
2023/09/22 06:18:25;;;;;;;15.60;2.08;;;;;;;8.96;100.00;99132.50;5095451;27;20368;-79
2023/09/22 06:20:58;;;;;;;11.73;2.15;;;;;;;8.99;100.00;99140.91;5096492;27;20035;-79
2023/09/22 06:23:24;;;;;;;14.80;2.25;;;;;;;8.95;100.00;99152.75;5122187;27;20419;-78
2023/09/22 06:25:56;;;;;;;19.85;2.00;;;;;;;8.91;100.00;99148.81;5097731;27;20044;-80
2023/09/22 06:28:22;;;;;;;17.05;1.48;;;;;;;8.87;100.00;99155.41;5091143;28;20043;-79
2023/09/22 06:30:50;;;;;;;19.08;2.38;;;;;;;8.88;100.00;99163.16;5097037;27;20039;-79
2023/09/22 06:33:16;;;;;;;18.00;2.15;;;;;;;8.89;100.00;99156.88;5118102;27;20035;-79
2023/09/22 06:35:43;;;;;;;20.48;2.60;;;;;;;8.89;100.00;99162.16;5092614;28;20399;-79
2023/09/22 06:38:10;;;;;;;19.25;3.10;;;;;;;8.89;100.00;99163.94;5093038;28;20106;-80
2023/09/22 06:40:37;;;;;;;10.88;2.40;;;;;;;8.93;100.00;99173.19;5056132;28;20032;-79
2023/09/22 06:43:08;;;;;;;12.85;1.83;;;;;;;8.91;100.00;99164.63;5090442;28;20675;-78
2023/09/22 06:45:38;;;;;;;18.00;2.28;;;;;;;8.92;100.00;99171.53;5070558;27;20063;-79
2023/09/22 06:48:05;;;;;;;12.63;2.85;;;;;;;8.93;100.00;99178.47;5092464;28;20035;-79
2023/09/22 06:50:37;;;;;;;11.82;2.28;;;;;;;8.97;100.00;99181.56;5073032;27;20036;-79
2023/09/22 06:53:04;;;;;;;19.85;2.78;;;;;;;8.92;100.00;99185.53;5054560;28;20030;-79
2023/09/22 06:55:33;;;;;;;12.88;2.40;;;;;;;8.95;100.00;99189.63;5085404;28;20032;-78
2023/09/22 06:57:59;;;;;;;19.80;3.58;;;;;;;8.98;100.00;99180.59;5103833;27;20063;-78
2023/09/22 07:00:28;;;;;;;17.02;2.30;;;;;;;9.01;100.00;99194.28;5086554;28;20058;-78
2023/09/22 07:02:55;;;;;;;25.48;2.10;;;;;;;9.03;100.00;99205.47;5095647;27;20032;-79
2023/09/22 07:05:21;;;;;;;9.13;1.70;;;;;;;9.01;100.00;99196.91;5065662;28;20043;-79
2023/09/22 07:07:47;;;;;;;11.95;2.28;;;;;;;9.01;100.00;99204.00;5086656;28;20585;-78
2023/09/22 07:10:15;;;;;;;16.48;2.20;;;;;;;8.99;100.00;99206.78;5098858;27;20043;-78
2023/09/22 07:12:41;;;;;;;9.77;1.83;;;;;;;9.02;100.00;99213.53;5057460;28;20040;-79
2023/09/22 07:15:08;;;;;;;15.32;2.42;;;;;;;9.04;100.00;99209.75;5072011;27;20035;-78
2023/09/22 07:17:37;;;;;;;20.67;2.10;;;;;;;9.09;100.00;99214.53;5083316;27;20664;-79
2023/09/22 07:20:04;;;;;;;19.05;2.08;;;;;;;9.14;100.00;99219.31;5092104;28;20036;-78
2023/09/22 07:22:32;;;;;;;18.70;2.67;;;;;;;9.16;100.00;99223.41;5104997;27;20016;-79
2023/09/22 07:24:58;;;;;;;12.38;2.00;;;;;;;9.19;100.00;99216.97;5076495;27;20047;-79
2023/09/22 07:27:24;;;;;;;9.10;1.60;;;;;;;9.23;100.00;99223.59;5073887;28;20040;-78
2023/09/22 07:29:50;;;;;;;10.15;1.90;;;;;;;9.29;100.00;99227.38;5077748;28;20058;-79
2023/09/22 07:32:17;;;;;;;10.85;1.48;;;;;;;9.31;100.00;99233.31;5072968;27;20031;-79
2023/09/22 07:34:43;;;;;;;11.20;1.35;;;;;;;9.35;100.00;99237.25;5077629;28;20685;-79
2023/09/22 07:37:11;;;;;;;11.32;1.80;;;;;;;9.38;100.00;99238.75;5100682;27;20039;-78
2023/09/22 07:39:40;;;;;;;12.25;2.30;;;;;;;9.45;100.00;99239.72;5103625;27;20043;-79
2023/09/22 07:42:07;;;;;;;10.52;1.98;;;;;;;9.42;100.00;99246.16;5091561;28;20479;-78
2023/09/22 07:44:32;;;;;;;13.07;2.30;;;;;;;9.45;100.00;99247.63;5088965;28;20044;-79
2023/09/22 07:46:59;;;;;;;11.38;1.73;;;;;;;9.46;100.00;99257.19;5083998;28;20043;-78
2023/09/22 07:49:26;;;;;;;13.30;1.77;;;;;;;9.48;100.00;99252.56;5086794;28;20563;-79
2023/09/22 07:51:53;;;;;;;9.35;2.08;;;;;;;9.51;100.00;99259.31;5077006;28;20447;-79
2023/09/22 07:54:21;;;;;;;12.00;1.77;;;;;;;9.52;100.00;99267.06;5071658;27;20043;-78
2023/09/22 07:56:47;;;;;;;15.13;2.00;;;;;;;9.47;100.00;99272.03;5069990;27;20045;-78
2023/09/22 07:59:16;;;;;;;11.60;1.77;;;;;;;9.52;100.00;99274.97;5071548;28;20118;-79
2023/09/22 08:01:43;;;;;;;20.77;2.28;;;;;;;9.50;100.00;99281.41;5069189;28;20047;-78
2023/09/22 08:04:12;;;;;;;10.80;1.92;;;;;;;9.50;100.00;99289.31;5085092;28;20472;-79
2023/09/22 08:06:38;;;;;;;14.35;1.98;;;;;;;9.52;100.00;99288.16;5101226;28;20043;-78
2023/09/22 08:09:04;;;;;;;12.23;3.03;;;;;;;9.58;100.00;99277.94;5083691;28;20023;-78
2023/09/22 08:11:33;;;;;;;10.30;2.03;;;;;;;9.70;100.00;99279.25;5108841;28;20019;-77
2023/09/22 08:14:00;;;;;;;12.55;1.52;;;;;;;9.73;100.00;99286.81;5088511;28;20120;-78
2023/09/22 08:16:26;;;;;;;10.15;1.35;;;;;;;9.79;100.00;99285.34;5081292;28;20035;-78
2023/09/22 08:18:54;;;;;;;11.68;1.80;;;;;;;9.82;100.00;99282.38;5086315;28;20054;-78
2023/09/22 08:21:21;;;;;;;9.20;1.33;;;;;;;9.90;100.00;99294.72;5090323;28;20062;-77
2023/09/22 08:23:48;;;;;;;12.40;2.25;;;;;;;9.98;100.00;99304.44;5082237;28;20462;-79
2023/09/22 08:26:17;;;;;;;10.68;2.13;;;;;;;10.00;100.00;99310.38;5084647;28;20464;-78
2023/09/22 08:28:47;;;;;;;10.95;1.55;;;;;;;10.11;100.00;99317.13;5087616;28;20472;-77
2023/09/22 08:31:13;;;;;;;13.48;1.88;;;;;;;10.18;100.00;99318.06;5085951;28;20127;-77
2023/09/22 08:33:40;;;;;;;12.55;2.13;;;;;;;10.25;100.00;99320.88;5087616;28;20043;-78
2023/09/22 08:36:06;;;;;;;8.18;1.52;;;;;;;10.23;100.00;99322.84;5122120;27;20035;-78
2023/09/22 08:38:33;;;;;;;23.02;2.38;;;;;;;10.19;100.00;99330.31;5120796;27;20034;-79
2023/09/22 08:41:04;;;;;;;8.00;1.67;;;;;;;10.18;100.00;99326.00;5100703;28;20031;-78
2023/09/22 08:43:32;;;;;;;11.60;1.90;;;;;;;10.13;100.00;99342.34;5066801;28;20042;-78
2023/09/22 08:46:00;;;;;;;12.70;2.50;;;;;;;10.19;100.00;99335.59;5086216;27;20560;-78
2023/09/22 08:48:27;;;;;;;9.50;1.88;;;;;;;10.17;100.00;99346.31;5098815;28;20032;-80
2023/09/22 08:50:53;;;;;;;10.35;2.33;;;;;;;10.25;100.00;99353.38;5064832;28;20031;-79
2023/09/22 08:53:19;;;;;;;17.50;2.55;;;;;;;10.30;100.00;99369.53;5088369;28;20043;-78
2023/09/22 08:55:49;;;;;;;12.60;1.65;;;;;;;10.39;100.00;99359.78;5086738;28;20036;-78
2023/09/22 08:58:18;;;;;;;6.75;1.33;;;;;;;10.49;100.00;99362.25;5086116;28;20549;-78
2023/09/22 09:00:48;;;;;;;11.23;2.70;;;;;;;10.49;100.00;99370.19;5113102;27;20042;-77
2023/09/22 09:03:14;;;;;;;6.60;1.40;;;;;;;10.59;100.00;99374.44;5088094;28;20039;-79
2023/09/22 09:05:40;;;;;;;15.95;2.22;;;;;;;10.66;100.00;99368.31;5079082;28;20052;-77
2023/09/22 09:08:11;;;;;;;9.55;1.50;;;;;;;10.75;100.00;99368.28;5087333;28;20056;-78
2023/09/22 09:10:38;;;;;;;9.85;1.95;;;;;;;10.72;100.00;99369.41;5069914;28;20047;-77
2023/09/22 09:13:06;;;;;;;13.63;1.88;;;;;;;10.77;100.00;99384.75;5082541;28;20028;-79
2023/09/22 09:15:55;;;;;;;10.55;1.88;;;;;;;10.82;100.00;99371.88;5113825;27;20043;-77
2023/09/22 09:18:27;;;;;;;12.60;2.53;;;;;;;10.84;100.00;99387.53;5081363;28;20027;-77
2023/09/22 09:21:14;;;;;;;8.65;1.67;;;;;;;10.81;100.00;99385.25;5100573;28;20044;-77
2023/09/22 09:23:56;;;;;;;8.63;1.67;;;;;;;10.72;100.00;99380.00;5069869;28;20043;-79
2023/09/22 09:26:31;;;;;;;5.82;1.05;;;;;;;10.69;100.00;99416.53;5092601;28;20075;-79
2023/09/22 09:28:59;;;;;;;10.23;1.55;;;;;;;10.67;100.00;99401.66;5056710;28;20031;-77
2023/09/22 09:31:45;;;;;;;12.15;2.13;;;;;;;10.70;100.00;99395.22;5103260;28;20383;-76
2023/09/22 09:34:11;;;;;;;;;;;;;;;10.58;100.00;99392.09;5097445;28;20040;-77
2023/09/22 09:36:36;;;;;;;11.75;2.65;;;;;;;10.62;100.00;99395.25;5097382;28;19939;-78
2023/09/22 09:39:03;;;;;;;5.72;1.20;;;;;;;10.75;100.00;99394.69;5078861;28;20047;-78
2023/09/22 09:41:30;;;;;;;5.82;1.10;;;;;;;10.86;100.00;99390.84;5074562;28;20031;-79
2023/09/22 09:43:59;;;;;;;13.52;1.77;;;;;;;11.03;100.00;99399.53;5089219;28;20043;-78
2023/09/22 09:46:28;;;;;;;8.68;1.27;;;;;;;11.06;100.00;99400.97;5071787;28;20104;-77
2023/09/22 09:48:55;;;;;;;4.15;1.00;;;;;;;11.07;100.00;99408.75;5079273;28;20466;-78
2023/09/22 09:51:24;;;;;;;10.23;1.42;;;;;;;11.13;100.00;99418.63;5098083;28;20119;-78
2023/09/22 09:54:03;;;;;;;5.80;1.13;;;;;;;11.21;100.00;99416.94;5107613;28;20542;-78
2023/09/22 09:56:30;;;;;;;7.43;1.15;;;;;;;11.22;100.00;99416.78;5106625;28;20107;-77
2023/09/22 09:58:57;;;;;;;4.80;1.15;;;;;;;11.26;100.00;99411.97;5086160;28;20043;-78
2023/09/22 10:01:23;;;;;;;7.53;1.40;;;;;;;11.34;100.00;99414.53;5091454;28;20031;-77
2023/09/22 10:03:51;;;;;;;7.55;0.93;;;;;;;11.45;100.00;99425.75;5074703;28;20043;-78
2023/09/22 10:06:19;;;;;;;11.23;1.73;;;;;;;11.59;100.00;99438.22;5120632;27;20031;-77
2023/09/22 10:08:44;;;;;;;10.35;1.63;;;;;;;11.68;100.00;99430.19;5084893;28;20046;-79
2023/09/22 10:11:13;;;;;;;6.63;1.25;;;;;;;11.93;100.00;99444.06;5080169;28;20483;-79
2023/09/22 10:13:39;;;;;;;4.93;0.90;;;;;;;12.04;100.00;99440.16;5101879;27;20039;-77
2023/09/22 10:16:06;;;;;;;6.78;0.98;;;;;;;12.13;100.00;99444.44;5075501;28;20111;-76
2023/09/22 10:18:50;;;;;;;7.45;1.63;;;;;;;12.19;100.00;99445.56;5085809;27;20035;-77
2023/09/22 10:21:28;;;;;;;6.88;1.40;;;;;;;12.42;100.00;99436.72;5089431;27;20047;-79
2023/09/22 10:24:27;;;;;;;9.35;1.10;;;;;;;12.55;100.00;99438.72;5090374;28;20054;-78
2023/09/22 10:26:56;;;;;;;6.38;1.27;;;;;;;12.57;100.00;99444.69;5097490;27;20464;-77
2023/09/22 10:29:37;;;;;;;8.75;1.30;;;;;;;12.52;100.00;99455.00;5072906;27;20031;-78
2023/09/22 10:32:26;;;;;;;9.85;2.13;;;;;;;12.48;100.00;99462.50;5076752;28;20111;-77
2023/09/22 10:35:15;;;;;;;5.70;1.13;;;;;;;12.39;100.00;99466.25;5082155;28;20096;-78
2023/09/22 10:38:02;;;;;;;7.18;1.30;;;;;;;12.36;100.00;99462.09;5074812;28;20119;-77
2023/09/22 10:40:28;;;;;;;10.05;1.80;;;;;;;12.39;100.00;99458.28;5098030;27;20031;-79
2023/09/22 10:42:54;;;;;;;5.45;1.42;;;;;;;12.48;100.00;99470.47;5090715;27;20492;-79
2023/09/22 10:45:28;;;;;;;9.20;1.50;;;;;;;12.59;100.00;99476.31;5105082;27;20027;-78
2023/09/22 10:47:57;;;;;;;8.93;1.42;;;;;;;12.68;100.00;99480.50;5074786;27;20035;-76
2023/09/22 10:50:31;;;;;;;8.63;1.50;;;;;;;12.84;100.00;99476.03;5074207;28;20039;-77
2023/09/22 10:53:05;;;;;;;7.55;1.48;;;;;;;12.96;100.00;99463.97;5089264;28;20472;-79
2023/09/22 10:55:40;;;;;;;4.93;1.35;;;;;;;13.03;100.00;99475.47;5105980;27;20031;-78
2023/09/22 10:58:18;;;;;;;7.80;1.38;;;;;;;13.09;100.00;99475.75;5107353;27;20034;-78
2023/09/22 11:01:00;;;;;;;8.20;1.42;;;;;;;13.11;100.00;99482.50;5073000;28;20047;-78
2023/09/22 11:03:27;;;;;;;6.65;1.30;;;;;;;13.07;100.00;99483.91;5083512;28;20062;-78
2023/09/22 11:06:06;;;;;;;7.20;1.65;;;;;;;13.06;100.00;99487.53;5089671;27;20035;-77
2023/09/22 11:08:32;;;;;;;5.72;1.33;;;;;;;12.98;100.00;99491.13;5084063;28;20036;-77
2023/09/22 11:10:59;;;;;;;6.82;1.02;;;;;;;12.97;100.00;99483.34;5103631;28;20114;-80
2023/09/22 11:13:24;;;;;;;8.20;1.38;;;;;;;12.97;100.00;99493.94;5097953;27;20398;-77
2023/09/22 11:15:56;;;;;;;6.65;1.33;;;;;;;13.08;100.00;99492.66;5070640;28;20036;-80
2023/09/22 11:18:25;;;;;;;6.32;1.08;;;;;;;13.02;100.00;99499.53;5073738;27;20034;-78
2023/09/22 11:21:05;;;;;;;7.72;1.38;;;;;;;12.99;100.00;99499.91;5087604;27;20046;-79
2023/09/22 11:23:32;;;;;;;10.63;2.05;;;;;;;12.82;100.00;99496.63;5091137;28;20440;-80
2023/09/22 11:26:00;;;;;;;10.07;1.83;;;;;;;12.72;100.00;99503.03;5088543;28;20425;-78
2023/09/22 11:28:26;;;;;;;13.05;1.90;;;;;;;12.62;100.00;99502.44;5091392;28;20032;-78